Time;durP1;ratioP1;P1;durP2;ratioP2;P2;SDS_P1;SDS_P2;PMS_P1;PMS_P2;Temp;Humidity;BMP_temperature;BMP_pressure;BME280_temperature;BME280_humidity;BME280_pressure;Samples;Min_cycle;Max_cycle;Signal;HPM_P1;HPM_P2
2022/07/19 00:00:09;;;;;;;15.43;6.78;;;;;;;;;;5016856;28;20090;-70
2022/07/19 00:02:35;;;;;;;15.25;6.75;;;;;;;;;;5042403;28;20474;-70
2022/07/19 00:05:01;;;;;;;14.23;6.93;;;;;;;;;;5043905;28;20045;-70
2022/07/19 00:07:28;;;;;;;15.18;6.45;;;;;;;;;;5048214;28;20413;-70
2022/07/19 00:09:53;;;;;;;;;;;;;;;;;;5040824;28;20231;-70
2022/07/19 00:12:20;;;;;;;15.63;6.35;;;;;;;;;;5049748;28;19964;-70
2022/07/19 00:14:46;;;;;;;14.48;5.97;;;;;;;;;;5048144;28;20041;-70
2022/07/19 00:17:12;;;;;;;12.60;6.10;;;;;;;;;;5026442;28;20142;-69
2022/07/19 00:19:38;;;;;;;13.82;6.10;;;;;;;;;;5032507;28;20061;-70
2022/07/19 00:22:04;;;;;;;17.08;6.10;;;;;;;;;;5036409;28;20033;-69
2022/07/19 00:24:30;;;;;;;;;;;;;;;;;;5031126;28;20067;-69
2022/07/19 00:26:56;;;;;;;16.48;6.95;;;;;;;;;;5036960;28;20349;-70
2022/07/19 00:29:22;;;;;;;15.73;6.28;;;;;;;;;;5030157;28;20128;-70
2022/07/19 00:31:48;;;;;;;;;;;;;;;;;;5040399;28;20195;-70
2022/07/19 00:34:15;;;;;;;17.17;6.85;;;;;;;;;;5044807;28;20348;-69
2022/07/19 00:36:41;;;;;;;12.98;5.78;;;;;;;;;;5049151;28;20056;-70
2022/07/19 00:39:07;;;;;;;14.15;6.55;;;;;;;;;;5048279;28;20106;-69
2022/07/19 00:41:39;;;;;;;14.45;6.20;;;;;;;;;;5020383;28;20053;-70
2022/07/19 00:44:05;;;;;;;15.77;6.15;;;;;;;;;;5043281;28;20044;-69
2022/07/19 00:46:31;;;;;;;;;;;;;;;;;;5045151;28;20032;-70
2022/07/19 00:48:57;;;;;;;13.68;5.82;;;;;;;;;;5047732;28;20019;-70
2022/07/19 00:51:23;;;;;;;;;;;;;;;;;;5044402;28;20382;-70
2022/07/19 00:53:49;;;;;;;21.83;6.60;;;;;;;;;;4998618;28;19929;-70
2022/07/19 00:56:16;;;;;;;15.77;6.22;;;;;;;;;;5050414;28;20060;-70
2022/07/19 00:58:42;;;;;;;12.30;6.00;;;;;;;;;;5029906;28;20061;-70
2022/07/19 01:01:09;;;;;;;13.25;6.07;;;;;;;;;;5048110;28;20036;-70
2022/07/19 01:03:36;;;;;;;12.25;5.75;;;;;;;;;;5030782;28;20041;-71
2022/07/19 01:06:02;;;;;;;15.52;5.97;;;;;;;;;;5030346;28;20041;-70
2022/07/19 01:08:29;;;;;;;16.38;6.30;;;;;;;;;;5028898;28;20140;-71
2022/07/19 01:10:55;;;;;;;16.00;6.28;;;;;;;;;;5046720;28;20182;-69
2022/07/19 01:13:21;;;;;;;;;;;;;;;;;;5036625;28;20052;-70
2022/07/19 01:15:47;;;;;;;19.42;7.72;;;;;;;;;;5044642;28;19916;-69
2022/07/19 01:18:13;;;;;;;;;;;;;;;;;;5037451;28;20049;-69
2022/07/19 01:20:39;;;;;;;14.82;6.35;;;;;;;;;;5042478;28;19978;-70
2022/07/19 01:23:05;;;;;;;;;;;;;;;;;;5027611;28;20112;-70
2022/07/19 01:25:32;;;;;;;17.00;7.13;;;;;;;;;;5029377;28;19976;-70
2022/07/19 01:27:58;;;;;;;12.70;6.80;;;;;;;;;;5030341;28;20048;-70
2022/07/19 01:30:24;;;;;;;;;;;;;;;;;;5037555;28;20507;-69
2022/07/19 01:32:51;;;;;;;16.75;7.53;;;;;;;;;;5031598;28;19982;-70
2022/07/19 01:35:17;;;;;;;14.98;7.47;;;;;;;;;;5043543;28;20139;-70
2022/07/19 01:37:44;;;;;;;14.48;7.03;;;;;;;;;;5040549;28;20158;-70
2022/07/19 01:40:11;;;;;;;17.80;7.07;;;;;;;;;;5033951;28;20140;-70
2022/07/19 01:42:38;;;;;;;15.25;6.40;;;;;;;;;;5046059;28;20036;-69
2022/07/19 01:45:05;;;;;;;18.10;7.03;;;;;;;;;;5008007;28;20069;-69
2022/07/19 01:47:31;;;;;;;15.57;7.72;;;;;;;;;;5037435;28;20064;-69
2022/07/19 01:49:57;;;;;;;;;;;;;;;;;;5031902;28;20499;-70
2022/07/19 01:52:23;;;;;;;13.75;6.93;;;;;;;;;;5048636;28;19916;-70
2022/07/19 01:54:49;;;;;;;;;;;;;;;;;;5046312;28;20046;-70
2022/07/19 01:57:16;;;;;;;14.85;6.70;;;;;;;;;;5036464;28;20232;-70
2022/07/19 01:59:42;;;;;;;14.82;6.88;;;;;;;;;;5033556;28;20053;-70
2022/07/19 02:02:08;;;;;;;;;;;;;;;;;;5029005;28;20077;-70
2022/07/19 02:04:34;;;;;;;16.40;6.75;;;;;;;;;;5037513;28;19959;-70
2022/07/19 02:07:00;;;;;;;;;;;;;;;;;;5034390;28;20389;-70
2022/07/19 02:09:26;;;;;;;13.82;6.65;;;;;;;;;;5036111;28;20027;-70
2022/07/19 02:11:52;;;;;;;;;;;;;;;;;;5028060;28;20057;-70
2022/07/19 02:14:18;;;;;;;16.88;8.20;;;;;;;;;;5048752;28;20107;-69
2022/07/19 02:16:44;;;;;;;16.33;7.82;;;;;;;;;;5041515;28;20067;-70
2022/07/19 02:19:11;;;;;;;19.58;9.52;;;;;;;;;;5048417;28;20051;-69
2022/07/19 02:21:37;;;;;;;17.98;8.05;;;;;;;;;;5039072;28;20051;-69
2022/07/19 02:24:05;;;;;;;16.70;8.38;;;;;;;;;;5048612;28;20091;-69
2022/07/19 02:26:31;;;;;;;17.67;8.10;;;;;;;;;;5038985;28;20358;-69
2022/07/19 02:28:57;;;;;;;;;;;;;;;;;;5029287;28;20045;-69
2022/07/19 02:31:23;;;;;;;16.17;7.68;;;;;;;;;;5042670;28;20007;-70
2022/07/19 02:33:49;;;;;;;15.68;7.90;;;;;;;;;;5043972;28;20056;-70
2022/07/19 02:36:16;;;;;;;22.20;7.95;;;;;;;;;;5022493;28;20034;-69
2022/07/19 02:38:42;;;;;;;15.40;7.57;;;;;;;;;;5047591;28;20095;-69
2022/07/19 02:41:08;;;;;;;;;;;;;;;;;;5047007;28;20041;-69
2022/07/19 02:43:34;;;;;;;20.48;7.80;;;;;;;;;;5047763;28;19925;-69
2022/07/19 02:46:00;;;;;;;;;;;;;;;;;;5046837;28;20341;-69
2022/07/19 02:48:26;;;;;;;15.13;7.45;;;;;;;;;;5034122;28;19923;-69
2022/07/19 02:50:52;;;;;;;;;;;;;;;;;;5041062;28;20111;-70
2022/07/19 02:53:18;;;;;;;16.67;7.55;;;;;;;;;;5029008;28;20340;-69
2022/07/19 02:55:44;;;;;;;;;;;;;;;;;;5028925;28;20214;-70
2022/07/19 02:58:10;;;;;;;19.58;8.63;;;;;;;;;;5038994;28;20083;-69
2022/07/19 03:00:36;;;;;;;;;;;;;;;;;;5027830;28;20047;-69
2022/07/19 03:05:48;;;;;;;17.33;9.05;;;;;;;;;;5029904;28;20044;-69
2022/07/19 03:08:14;;;;;;;15.68;9.45;;;;;;;;;;5043811;28;20041;-70
2022/07/19 03:10:40;;;;;;;18.92;9.82;;;;;;;;;;5031725;28;20109;-69
2022/07/19 03:13:08;;;;;;;;;;;;;;;;;;5044668;28;20033;-69
2022/07/19 03:15:34;;;;;;;17.02;8.98;;;;;;;;;;5027805;28;19916;-69
2022/07/19 03:18:00;;;;;;;18.50;8.57;;;;;;;;;;5041451;28;20048;-70
2022/07/19 03:20:26;;;;;;;;;;;;;;;;;;5028486;28;20048;-69
2022/07/19 03:22:52;;;;;;;20.20;9.30;;;;;;;;;;5040381;28;20011;-70
2022/07/19 03:25:18;;;;;;;;;;;;;;;;;;5032272;28;20101;-69
2022/07/19 03:27:44;;;;;;;18.15;9.00;;;;;;;;;;5033749;28;20237;-69
2022/07/19 03:30:10;;;;;;;19.20;8.88;;;;;;;;;;5027076;28;20042;-69
2022/07/19 03:32:37;;;;;;;17.65;9.48;;;;;;;;;;5032021;28;20092;-69
2022/07/19 03:35:03;;;;;;;18.30;8.45;;;;;;;;;;5027698;28;20072;-70
2022/07/19 03:37:29;;;;;;;;;;;;;;;;;;5043861;28;20377;-70
2022/07/19 03:39:55;;;;;;;17.98;9.38;;;;;;;;;;5026753;28;19999;-69
2022/07/19 03:42:21;;;;;;;15.43;9.00;;;;;;;;;;5031696;28;20102;-69
2022/07/19 03:44:47;;;;;;;;;;;;;;;;;;5044867;28;20132;-70
2022/07/19 03:47:13;;;;;;;17.92;9.27;;;;;;;;;;5038829;28;19924;-70
2022/07/19 03:49:39;;;;;;;;;;;;;;;;;;5046808;28;20049;-69
2022/07/19 03:52:05;;;;;;;18.67;10.25;;;;;;;;;;5045406;28;19935;-71
2022/07/19 03:54:31;;;;;;;24.00;9.98;;;;;;;;;;5048920;28;20033;-69
2022/07/19 03:56:57;;;;;;;17.45;10.18;;;;;;;;;;5038235;28;20068;-69
2022/07/19 03:59:23;;;;;;;20.67;10.18;;;;;;;;;;5044988;28;20116;-69
2022/07/19 04:01:52;;;;;;;21.25;9.75;;;;;;;;;;5048128;28;20434;-70
2022/07/19 04:04:18;;;;;;;19.00;9.35;;;;;;;;;;5032477;28;20049;-69
2022/07/19 04:06:44;;;;;;;;;;;;;;;;;;5048187;28;20134;-70
2022/07/19 04:09:10;;;;;;;19.98;9.93;;;;;;;;;;5047196;28;20001;-68
2022/07/19 04:11:36;;;;;;;;;;;;;;;;;;5049968;28;20453;-70
2022/07/19 04:14:02;;;;;;;17.45;9.55;;;;;;;;;;5029070;28;19993;-70
2022/07/19 04:16:28;;;;;;;;;;;;;;;;;;5049765;28;20147;-70
2022/07/19 04:18:54;;;;;;;17.88;9.40;;;;;;;;;;5047457;28;20019;-69
2022/07/19 04:21:20;;;;;;;;;;;;;;;;;;5049340;28;20464;-70
2022/07/19 04:23:46;;;;;;;21.00;10.07;;;;;;;;;;5043819;28;19963;-70
2022/07/19 04:26:12;;;;;;;19.85;10.35;;;;;;;;;;5049200;28;20161;-69
2022/07/19 04:28:38;;;;;;;16.25;8.57;;;;;;;;;;5047651;28;20440;-69
2022/07/19 04:31:04;;;;;;;17.85;9.43;;;;;;;;;;5035190;28;20183;-69
2022/07/19 04:33:30;;;;;;;;;;;;;;;;;;5021784;28;20045;-69
2022/07/19 04:35:56;;;;;;;18.33;9.73;;;;;;;;;;5031502;28;20186;-69
2022/07/19 04:38:22;;;;;;;;;;;;;;;;;;5041203;28;20091;-69
2022/07/19 04:40:49;;;;;;;17.88;9.18;;;;;;;;;;5048444;28;20015;-69
2022/07/19 04:43:16;;;;;;;15.50;8.13;;;;;;;;;;5048730;28;20063;-69
2022/07/19 04:45:44;;;;;;;21.67;8.80;;;;;;;;;;5050814;28;20040;-69
2022/07/19 04:48:10;;;;;;;17.42;8.52;;;;;;;;;;5046562;28;20051;-69
2022/07/19 04:50:36;;;;;;;21.48;9.00;;;;;;;;;;5032267;28;20040;-69
2022/07/19 04:53:03;;;;;;;20.60;9.23;;;;;;;;;;5044651;28;20124;-69
2022/07/19 04:55:28;;;;;;;;;;;;;;;;;;5012937;28;20096;-69
2022/07/19 04:57:55;;;;;;;17.88;7.75;;;;;;;;;;5045411;28;19921;-70
2022/07/19 05:00:20;;;;;;;;;;;;;;;;;;5012886;28;20051;-69
2022/07/19 05:02:47;;;;;;;15.27;8.25;;;;;;;;;;5042036;28;20421;-71
2022/07/19 05:05:14;;;;;;;;;;;;;;;;;;5051182;28;20118;-71
2022/07/19 05:07:40;;;;;;;18.98;7.82;;;;;;;;;;5033065;28;20342;-71
2022/07/19 05:10:06;;;;;;;16.90;8.07;;;;;;;;;;5034525;28;20142;-71
2022/07/19 05:12:32;;;;;;;19.23;7.78;;;;;;;;;;5011850;28;20041;-71
2022/07/19 05:14:59;;;;;;;16.20;7.38;;;;;;;;;;5030997;28;20141;-70
2022/07/19 05:17:25;;;;;;;16.80;8.25;;;;;;;;;;5012508;28;20049;-70
2022/07/19 05:19:52;;;;;;;15.75;7.90;;;;;;;;;;4985391;28;20117;-70
2022/07/19 05:22:18;;;;;;;16.55;8.00;;;;;;;;;;5048514;28;20045;-70
2022/07/19 05:24:44;;;;;;;17.80;7.55;;;;;;;;;;5047663;28;20045;-71
2022/07/19 05:27:10;;;;;;;;;;;;;;;;;;5047699;28;20045;-71
2022/07/19 05:29:37;;;;;;;17.63;8.20;;;;;;;;;;5038515;28;20170;-72
2022/07/19 05:32:03;;;;;;;16.23;7.30;;;;;;;;;;5046439;28;20114;-71
2022/07/19 05:34:29;;;;;;;16.23;7.70;;;;;;;;;;5033138;28;20080;-71
2022/07/19 05:36:55;;;;;;;;;;;;;;;;;;5034808;28;20697;-72
2022/07/19 05:39:21;;;;;;;14.52;6.75;;;;;;;;;;5027512;28;19936;-71
2022/07/19 05:41:47;;;;;;;;;;;;;;;;;;5042449;28;20100;-69
2022/07/19 05:44:13;;;;;;;16.60;6.38;;;;;;;;;;5044648;28;20008;-70
2022/07/19 05:46:40;;;;;;;;;;;;;;;;;;5035815;28;20033;-69
2022/07/19 05:49:09;;;;;;;15.90;6.93;;;;;;;;;;5037152;28;20329;-69
2022/07/19 05:51:36;;;;;;;16.10;6.60;;;;;;;;;;5031052;28;20045;-68
2022/07/19 05:54:02;;;;;;;16.02;6.90;;;;;;;;;;5040932;28;20044;-69
2022/07/19 05:56:28;;;;;;;14.98;6.40;;;;;;;;;;5034605;28;20455;-70
2022/07/19 05:58:55;;;;;;;13.73;7.20;;;;;;;;;;5039100;28;20440;-69
2022/07/19 06:01:24;;;;;;;;;;;;;;;;;;5037157;28;20041;-70
2022/07/19 06:03:54;;;;;;;16.05;7.05;;;;;;;;;;5032397;28;20015;-70
2022/07/19 06:06:20;;;;;;;16.50;6.90;;;;;;;;;;5028200;28;20049;-68
2022/07/19 06:08:47;;;;;;;17.17;6.72;;;;;;;;;;5016422;28;20191;-71
2022/07/19 06:11:14;;;;;;;15.95;6.50;;;;;;;;;;5039458;28;20075;-70
2022/07/19 06:13:40;;;;;;;16.98;7.28;;;;;;;;;;5038395;28;20057;-71
2022/07/19 06:16:07;;;;;;;15.23;6.85;;;;;;;;;;5029267;28;20163;-68
2022/07/19 06:18:36;;;;;;;16.15;6.93;;;;;;;;;;5034411;28;20160;-68
2022/07/19 06:21:08;;;;;;;16.05;7.32;;;;;;;;;;5019333;28;20068;-68
2022/07/19 06:23:34;;;;;;;16.83;6.40;;;;;;;;;;5039976;28;20414;-69
2022/07/19 06:26:00;;;;;;;18.23;6.93;;;;;;;;;;5045959;28;20211;-68
2022/07/19 06:28:26;;;;;;;14.32;6.35;;;;;;;;;;5022463;28;20098;-67
2022/07/19 06:30:53;;;;;;;15.43;6.72;;;;;;;;;;5041759;28;20088;-70
2022/07/19 06:33:19;;;;;;;13.80;6.75;;;;;;;;;;5047278;28;20380;-68
2022/07/19 06:35:46;;;;;;;14.10;6.50;;;;;;;;;;5046666;28;20071;-69
2022/07/19 06:38:13;;;;;;;13.93;6.28;;;;;;;;;;5042732;28;20044;-67
2022/07/19 06:40:39;;;;;;;13.68;6.25;;;;;;;;;;5028793;28;20085;-70
2022/07/19 06:43:05;;;;;;;14.27;6.05;;;;;;;;;;5031396;28;20353;-70
2022/07/19 06:45:31;;;;;;;13.50;6.32;;;;;;;;;;5043401;28;20470;-69
2022/07/19 06:47:57;;;;;;;17.73;7.03;;;;;;;;;;5037965;28;20095;-69
2022/07/19 06:50:23;;;;;;;14.25;6.18;;;;;;;;;;5028705;28;20060;-69
2022/07/19 06:52:49;;;;;;;;;;;;;;;;;;5028970;28;20132;-69
2022/07/19 06:55:15;;;;;;;14.27;6.22;;;;;;;;;;5010035;28;20369;-72
2022/07/19 06:57:42;;;;;;;14.50;7.07;;;;;;;;;;5029827;28;20119;-73
2022/07/19 07:00:09;;;;;;;16.77;6.70;;;;;;;;;;5029640;28;20039;-72
2022/07/19 07:02:38;;;;;;;14.23;6.20;;;;;;;;;;5027999;28;20500;-72
2022/07/19 07:05:05;;;;;;;14.20;6.43;;;;;;;;;;5043117;28;20127;-71
2022/07/19 07:07:31;;;;;;;14.90;5.70;;;;;;;;;;5047424;28;20117;-71
2022/07/19 07:09:57;;;;;;;14.48;6.00;;;;;;;;;;5049120;28;20045;-70
2022/07/19 07:12:23;;;;;;;15.50;5.90;;;;;;;;;;5047315;28;20452;-72
2022/07/19 07:14:49;;;;;;;19.20;6.53;;;;;;;;;;5031468;28;20117;-70
2022/07/19 07:17:15;;;;;;;20.23;6.00;;;;;;;;;;5026991;28;20044;-71
2022/07/19 07:19:41;;;;;;;18.08;6.13;;;;;;;;;;5019931;28;20038;-71
2022/07/19 07:22:07;;;;;;;17.10;6.25;;;;;;;;;;5033747;28;20048;-72
2022/07/19 07:24:33;;;;;;;14.88;5.38;;;;;;;;;;5028657;28;20325;-71
2022/07/19 07:26:59;;;;;;;15.63;5.75;;;;;;;;;;5049381;28;20041;-71
2022/07/19 07:29:26;;;;;;;13.25;5.68;;;;;;;;;;5034210;28;20088;-73
2022/07/19 07:31:52;;;;;;;16.80;5.90;;;;;;;;;;5035416;28;20087;-72
2022/07/19 07:34:18;;;;;;;17.10;6.10;;;;;;;;;;5038225;28;20133;-71
2022/07/19 07:36:44;;;;;;;12.82;5.97;;;;;;;;;;5030364;28;20056;-71
2022/07/19 07:39:10;;;;;;;13.90;5.85;;;;;;;;;;5031545;28;20071;-71
2022/07/19 07:41:36;;;;;;;13.43;5.72;;;;;;;;;;5030390;28;20064;-71
2022/07/19 07:44:03;;;;;;;15.48;5.82;;;;;;;;;;5017045;28;20069;-73
2022/07/19 07:46:29;;;;;;;14.43;5.70;;;;;;;;;;5030316;28;20397;-74
2022/07/19 07:48:55;;;;;;;13.18;5.28;;;;;;;;;;5045700;28;20040;-73
2022/07/19 07:51:21;;;;;;;15.77;5.57;;;;;;;;;;5045581;28;20099;-71
2022/07/19 07:53:47;;;;;;;12.35;4.88;;;;;;;;;;5040771;28;20120;-71
2022/07/19 07:56:13;;;;;;;12.95;4.72;;;;;;;;;;5049252;28;20084;-70
2022/07/19 07:58:39;;;;;;;11.57;4.82;;;;;;;;;;5043882;28;20095;-71
2022/07/19 08:01:05;;;;;;;13.82;5.65;;;;;;;;;;5045386;28;20041;-72
2022/07/19 08:03:31;;;;;;;17.15;5.28;;;;;;;;;;5035646;28;20100;-73
2022/07/19 08:05:57;;;;;;;12.65;5.63;;;;;;;;;;5041088;28;20103;-72
2022/07/19 08:08:26;;;;;;;12.95;5.32;;;;;;;;;;5037287;28;20040;-71
2022/07/19 08:10:58;;;;;;;13.82;5.25;;;;;;;;;;5021275;28;20458;-72
2022/07/19 08:13:24;;;;;;;11.05;4.28;;;;;;;;;;5042280;28;20119;-71
2022/07/19 08:15:51;;;;;;;12.77;5.05;;;;;;;;;;5031293;28;20067;-70
2022/07/19 08:18:17;;;;;;;15.35;5.07;;;;;;;;;;5030411;28;20346;-71
2022/07/19 08:20:44;;;;;;;13.90;5.35;;;;;;;;;;5039833;28;20190;-71
2022/07/19 08:23:10;;;;;;;15.02;4.95;;;;;;;;;;5048891;28;20504;-73
2022/07/19 08:25:36;;;;;;;14.88;4.80;;;;;;;;;;5048528;28;20041;-71
2022/07/19 08:28:04;;;;;;;16.05;5.47;;;;;;;;;;5027477;28;20041;-72
2022/07/19 08:30:30;;;;;;;15.73;4.68;;;;;;;;;;5041197;28;20041;-71
2022/07/19 08:32:57;;;;;;;12.73;5.50;;;;;;;;;;5041200;28;20473;-71
2022/07/19 08:35:23;;;;;;;11.27;4.63;;;;;;;;;;5042692;28;20517;-71
2022/07/19 08:37:49;;;;;;;11.82;4.45;;;;;;;;;;5050550;28;20054;-73
2022/07/19 08:40:15;;;;;;;9.73;4.47;;;;;;;;;;5031671;28;20052;-71
2022/07/19 08:42:42;;;;;;;14.23;4.25;;;;;;;;;;5048747;28;20032;-71
2022/07/19 08:45:09;;;;;;;13.02;4.80;;;;;;;;;;5029502;28;20154;-70
2022/07/19 08:47:36;;;;;;;11.70;4.40;;;;;;;;;;5046148;28;20041;-75
2022/07/19 08:50:03;;;;;;;12.07;4.97;;;;;;;;;;5045049;28;20091;-69
2022/07/19 08:52:29;;;;;;;12.57;4.38;;;;;;;;;;5049162;28;20047;-69
2022/07/19 08:54:56;;;;;;;13.27;4.63;;;;;;;;;;5045771;28;20300;-69
2022/07/19 09:00:08;;;;;;;11.15;4.28;;;;;;;;;;5040144;28;20053;-70
2022/07/19 09:02:34;;;;;;;14.77;4.30;;;;;;;;;;5031006;28;20041;-70
2022/07/19 09:05:01;;;;;;;14.75;4.53;;;;;;;;;;5033652;28;20045;-69
2022/07/19 09:07:27;;;;;;;9.68;3.85;;;;;;;;;;5044291;28;20123;-70
2022/07/19 09:10:13;;;;;;;12.18;4.05;;;;;;;;;;5017730;28;20128;-72
2022/07/19 09:12:57;;;;;;;10.18;4.25;;;;;;;;;;5031165;28;20038;-73
2022/07/19 09:15:36;;;;;;;9.93;4.10;;;;;;;;;;5040869;28;20073;-70
2022/07/19 09:18:06;;;;;;;10.80;4.43;;;;;;;;;;5042551;28;20110;-70
2022/07/19 09:20:32;;;;;;;10.40;4.07;;;;;;;;;;5044048;28;20037;-69
2022/07/19 09:22:58;;;;;;;11.63;4.07;;;;;;;;;;5045671;28;20060;-69
2022/07/19 09:25:44;;;;;;;9.15;3.65;;;;;;;;;;5039911;28;20041;-69
2022/07/19 09:28:11;;;;;;;11.88;3.83;;;;;;;;;;5040298;28;20124;-68
2022/07/19 09:30:44;;;;;;;9.82;4.32;;;;;;;;;;5037201;28;20045;-68
2022/07/19 09:33:11;;;;;;;11.90;4.63;;;;;;;;;;5030951;28;20148;-71
2022/07/19 09:35:38;;;;;;;10.38;3.72;;;;;;;;;;4997773;28;20069;-71
2022/07/19 09:38:16;;;;;;;9.43;3.90;;;;;;;;;;5029383;28;20103;-69
2022/07/19 09:40:42;;;;;;;11.65;3.75;;;;;;;;;;5033355;28;20319;-72
2022/07/19 09:43:08;;;;;;;13.20;3.78;;;;;;;;;;5017247;28;20037;-68
2022/07/19 09:45:35;;;;;;;11.20;4.03;;;;;;;;;;5040632;28;20091;-68
2022/07/19 09:48:03;;;;;;;12.18;4.10;;;;;;;;;;5038088;28;20052;-67
2022/07/19 09:50:29;;;;;;;10.85;3.90;;;;;;;;;;5033419;28;20053;-68
2022/07/19 09:52:57;;;;;;;9.40;3.72;;;;;;;;;;5042611;28;20037;-69
2022/07/19 09:55:24;;;;;;;13.30;4.05;;;;;;;;;;5042024;28;20098;-70
2022/07/19 09:57:51;;;;;;;11.05;3.67;;;;;;;;;;5043179;28;20354;-70
2022/07/19 10:00:21;;;;;;;12.60;3.70;;;;;;;;;;5034949;28;20053;-72
2022/07/19 10:02:51;;;;;;;9.30;3.80;;;;;;;;;;4999549;28;20095;-68
2022/07/19 10:05:18;;;;;;;10.07;3.65;;;;;;;;;;5017860;28;20330;-68
2022/07/19 10:07:44;;;;;;;15.63;3.60;;;;;;;;;;5038437;28;20049;-72
2022/07/19 10:10:12;;;;;;;15.10;4.40;;;;;;;;;;5034630;28;20120;-69
2022/07/19 10:12:38;;;;;;;9.63;3.30;;;;;;;;;;5034524;28;20033;-71
2022/07/19 10:15:05;;;;;;;12.00;3.70;;;;;;;;;;5035849;28;20803;-69
2022/07/19 10:17:31;;;;;;;9.98;3.40;;;;;;;;;;5035366;28;20090;-69
2022/07/19 10:19:58;;;;;;;11.32;3.72;;;;;;;;;;5042092;28;20119;-73
2022/07/19 10:22:25;;;;;;;16.17;3.75;;;;;;;;;;5042749;28;20148;-72
2022/07/19 10:24:56;;;;;;;11.60;3.50;;;;;;;;;;5019151;28;20118;-79
2022/07/19 10:27:25;;;;;;;14.52;3.67;;;;;;;;;;5014738;28;20033;-72
2022/07/19 10:30:09;;;;;;;10.85;3.28;;;;;;;;;;5032066;28;20056;-76
2022/07/19 10:32:36;;;;;;;11.23;3.38;;;;;;;;;;5022257;28;20049;-74
2022/07/19 10:35:36;;;;;;;9.43;3.53;;;;;;;;;;5031965;28;20072;-73
2022/07/19 10:38:02;;;;;;;12.00;3.85;;;;;;;;;;4976838;28;20434;-75
2022/07/19 10:40:42;;;;;;;9.82;3.78;;;;;;;;;;5010922;28;20449;-71
2022/07/19 10:43:09;;;;;;;12.20;4.13;;;;;;;;;;5034788;28;20528;-69
2022/07/19 10:45:36;;;;;;;8.73;3.60;;;;;;;;;;5041193;28;20077;-73
2022/07/19 10:48:04;;;;;;;12.00;3.35;;;;;;;;;;5040701;28;20068;-76
2022/07/19 10:50:44;;;;;;;8.40;3.20;;;;;;;;;;5031254;28;20428;-74
2022/07/19 10:53:11;;;;;;;13.40;3.78;;;;;;;;;;5039346;28;20669;-74
2022/07/19 10:55:37;;;;;;;13.75;3.95;;;;;;;;;;5046419;28;20056;-73
2022/07/19 10:58:06;;;;;;;11.50;3.92;;;;;;;;;;5028397;28;20041;-71
2022/07/19 11:00:41;;;;;;;8.95;3.50;;;;;;;;;;5044316;28;20093;-72
2022/07/19 11:03:22;;;;;;;9.15;3.20;;;;;;;;;;5047180;28;20354;-75
2022/07/19 11:05:48;;;;;;;14.32;5.15;;;;;;;;;;5048620;28;20048;-72
2022/07/19 11:08:14;;;;;;;11.80;4.47;;;;;;;;;;5046318;28;20037;-76
2022/07/19 11:10:41;;;;;;;11.55;3.67;;;;;;;;;;5038340;28;20041;-67
2022/07/19 11:13:07;;;;;;;10.30;3.80;;;;;;;;;;5019825;28;20076;-68
2022/07/19 11:15:33;;;;;;;11.88;3.85;;;;;;;;;;5046808;28;20098;-74
2022/07/19 11:18:04;;;;;;;11.23;3.20;;;;;;;;;;5012846;28;20045;-69
2022/07/19 11:20:31;;;;;;;11.80;3.17;;;;;;;;;;5046295;28;20052;-79
2022/07/19 11:22:57;;;;;;;8.13;3.13;;;;;;;;;;5041771;28;20037;-71
2022/07/19 11:25:29;;;;;;;11.73;3.00;;;;;;;;;;5039571;28;20033;-70
2022/07/19 11:27:55;;;;;;;8.82;3.00;;;;;;;;;;5039679;28;20055;-74
2022/07/19 11:30:22;;;;;;;8.73;3.03;;;;;;;;;;5032667;28;20049;-70
2022/07/19 11:32:56;;;;;;;9.05;2.67;;;;;;;;;;5043640;28;20049;-71
2022/07/19 11:35:22;;;;;;;8.07;3.00;;;;;;;;;;5043928;28;20048;-71
2022/07/19 11:37:48;;;;;;;8.77;2.83;;;;;;;;;;5045132;28;20052;-74
2022/07/19 11:40:14;;;;;;;8.88;2.85;;;;;;;;;;5044971;28;20040;-79
2022/07/19 11:42:44;;;;;;;11.07;2.95;;;;;;;;;;5039381;28;20076;-75
2022/07/19 11:45:16;;;;;;;10.25;3.17;;;;;;;;;;5030938;28;20046;-79
2022/07/19 11:47:47;;;;;;;11.48;3.45;;;;;;;;;;5031435;28;20140;-76
2022/07/19 11:50:18;;;;;;;9.30;2.83;;;;;;;;;;5036513;28;20081;-71
2022/07/19 11:52:51;;;;;;;10.27;3.03;;;;;;;;;;5031403;28;20077;-72
2022/07/19 11:55:18;;;;;;;9.30;3.13;;;;;;;;;;5001683;28;20061;-80
2022/07/19 11:57:44;;;;;;;14.63;3.05;;;;;;;;;;5029789;28;20528;-74
2022/07/19 12:00:11;;;;;;;12.95;3.30;;;;;;;;;;5040944;28;20060;-72
2022/07/19 12:03:02;;;;;;;9.40;3.20;;;;;;;;;;5037414;28;20037;-70
2022/07/19 12:05:29;;;;;;;8.93;2.85;;;;;;;;;;5042348;28;20044;-72
2022/07/19 12:07:58;;;;;;;7.95;2.97;;;;;;;;;;5044215;28;20052;-74
2022/07/19 12:10:50;;;;;;;8.70;2.67;;;;;;;;;;5033783;28;20049;-75
2022/07/19 12:13:28;;;;;;;11.35;3.00;;;;;;;;;;5024348;28;20117;-83
2022/07/19 12:16:00;;;;;;;8.90;2.80;;;;;;;;;;5018571;28;20112;-77
2022/07/19 12:18:43;;;;;;;7.43;2.55;;;;;;;;;;5013969;28;20107;-74
2022/07/19 12:21:21;;;;;;;9.38;2.47;;;;;;;;;;5043806;28;20043;-72
2022/07/19 12:24:06;;;;;;;9.85;2.67;;;;;;;;;;5044259;28;20361;-74
2022/07/19 12:26:32;;;;;;;7.57;2.60;;;;;;;;;;5043225;28;20033;-75
2022/07/19 12:28:58;;;;;;;11.35;2.53;;;;;;;;;;5041749;28;20044;-85
2022/07/19 12:31:24;;;;;;;8.10;2.70;;;;;;;;;;5037421;28;20134;-75
2022/07/19 12:34:01;;;;;;;8.13;2.10;;;;;;;;;;5045034;28;20056;-74
2022/07/19 12:36:37;;;;;;;7.10;2.50;;;;;;;;;;5028745;28;20141;-73
2022/07/19 12:39:04;;;;;;;10.55;2.35;;;;;;;;;;5040531;28;20042;-77
2022/07/19 12:41:30;;;;;;;13.02;2.83;;;;;;;;;;5039769;28;20230;-76
2022/07/19 12:43:56;;;;;;;8.35;2.60;;;;;;;;;;5046703;28;20413;-75
2022/07/19 12:46:22;;;;;;;8.65;2.60;;;;;;;;;;5037232;28;20060;-72
2022/07/19 12:48:48;;;;;;;11.07;2.50;;;;;;;;;;5036121;28;20122;-75
2022/07/19 12:51:15;;;;;;;9.27;2.60;;;;;;;;;;5047836;28;20033;-75
2022/07/19 12:53:41;;;;;;;9.63;2.78;;;;;;;;;;5033742;28;20132;-71
2022/07/19 12:56:07;;;;;;;9.13;2.90;;;;;;;;;;5031803;28;20043;-77
2022/07/19 13:01:18;;;;;;;7.82;2.40;;;;;;;;;;5030022;28;20041;-76
2022/07/19 13:03:44;;;;;;;9.95;2.70;;;;;;;;;;5010860;28;20153;-75
2022/07/19 13:06:10;;;;;;;14.90;2.70;;;;;;;;;;5030665;28;20052;-75
2022/07/19 13:08:36;;;;;;;10.15;3.10;;;;;;;;;;5014757;28;20423;-72
2022/07/19 13:11:02;;;;;;;9.70;2.88;;;;;;;;;;5017383;28;20569;-70
2022/07/19 13:13:28;;;;;;;9.57;2.88;;;;;;;;;;5035992;28;20124;-75
2022/07/19 13:15:54;;;;;;;13.77;3.00;;;;;;;;;;5017066;28;20056;-71
2022/07/19 13:18:21;;;;;;;8.27;2.58;;;;;;;;;;5034197;28;20072;-74
2022/07/19 13:20:48;;;;;;;7.95;2.55;;;;;;;;;;5035098;28;20237;-71
2022/07/19 13:23:14;;;;;;;7.85;2.38;;;;;;;;;;5036607;28;20028;-76
2022/07/19 13:25:40;;;;;;;9.88;2.80;;;;;;;;;;5039557;28;20048;-77
2022/07/19 13:28:06;;;;;;;12.35;2.80;;;;;;;;;;5033901;28;20562;-74
2022/07/19 13:30:33;;;;;;;12.23;3.10;;;;;;;;;;5019854;28;20056;-75
2022/07/19 13:32:59;;;;;;;8.73;2.95;;;;;;;;;;5036083;28;20159;-73
2022/07/19 13:35:25;;;;;;;11.50;2.70;;;;;;;;;;5042276;28;20132;-85
2022/07/19 13:37:51;;;;;;;12.68;2.92;;;;;;;;;;5005175;28;20244;-69
2022/07/19 13:40:17;;;;;;;11.15;2.80;;;;;;;;;;5040356;28;20059;-71
2022/07/19 13:42:43;;;;;;;7.75;2.80;;;;;;;;;;5040978;28;20045;-72
2022/07/19 13:45:10;;;;;;;9.27;2.88;;;;;;;;;;5047953;28;20079;-71
2022/07/19 13:47:38;;;;;;;10.55;3.05;;;;;;;;;;5031565;28;20045;-73
2022/07/19 13:50:04;;;;;;;10.43;2.72;;;;;;;;;;5031545;28;20184;-72
2022/07/19 13:52:30;;;;;;;10.07;3.30;;;;;;;;;;5011438;28;20560;-71
2022/07/19 13:54:56;;;;;;;11.07;3.10;;;;;;;;;;5034375;28;20053;-72
2022/07/19 13:57:22;;;;;;;9.65;2.90;;;;;;;;;;5032804;28;20049;-72
2022/07/19 13:59:48;;;;;;;9.30;2.90;;;;;;;;;;5020716;28;20391;-70
2022/07/19 14:02:15;;;;;;;9.77;2.90;;;;;;;;;;5037032;28;20057;-78
2022/07/19 14:04:41;;;;;;;8.82;2.72;;;;;;;;;;5029849;28;20060;-74
2022/07/19 14:07:07;;;;;;;10.27;2.90;;;;;;;;;;5027700;28;20051;-74
2022/07/19 14:09:33;;;;;;;9.20;2.72;;;;;;;;;;5031771;28;20214;-73
2022/07/19 14:11:59;;;;;;;9.30;2.95;;;;;;;;;;5039048;28;20170;-71
2022/07/19 14:14:26;;;;;;;11.00;3.10;;;;;;;;;;5018058;28;20073;-74
2022/07/19 14:16:52;;;;;;;10.00;2.90;;;;;;;;;;5033506;28;20061;-76
2022/07/19 14:19:18;;;;;;;8.93;2.90;;;;;;;;;;5018865;28;20047;-70
2022/07/19 14:21:44;;;;;;;9.73;3.10;;;;;;;;;;5029851;28;20052;-71
2022/07/19 14:24:10;;;;;;;11.45;2.60;;;;;;;;;;5034781;28;20077;-72
2022/07/19 14:26:37;;;;;;;11.75;3.15;;;;;;;;;;5031747;28;20041;-73
2022/07/19 14:29:03;;;;;;;9.57;2.88;;;;;;;;;;5029394;28;20556;-79
2022/07/19 14:31:30;;;;;;;9.80;2.88;;;;;;;;;;5035226;28;20156;-70
2022/07/19 14:33:56;;;;;;;8.90;3.00;;;;;;;;;;5034092;28;20041;-69
2022/07/19 14:36:22;;;;;;;9.13;3.00;;;;;;;;;;5016270;28;20045;-73
2022/07/19 14:38:48;;;;;;;11.02;2.50;;;;;;;;;;5026680;28;20052;-73
2022/07/19 14:41:14;;;;;;;8.52;2.70;;;;;;;;;;5030069;28;20095;-77
2022/07/19 14:43:40;;;;;;;8.20;2.83;;;;;;;;;;5034384;28;20072;-77
2022/07/19 14:46:07;;;;;;;11.52;3.15;;;;;;;;;;5035667;28;20049;-71
2022/07/19 14:48:33;;;;;;;7.18;2.78;;;;;;;;;;5036790;28;20060;-71
2022/07/19 14:51:03;;;;;;;11.98;3.35;;;;;;;;;;5028094;28;20037;-72
2022/07/19 14:53:29;;;;;;;11.02;2.83;;;;;;;;;;5037005;28;20068;-74